Time;durP1;ratioP1;P1;durP2;ratioP2;P2;SDS_P1;SDS_P2;PMS_P1;PMS_P2;Temp;Humidity;BMP_temperature;BMP_pressure;BME280_temperature;BME280_humidity;BME280_pressure;Samples;Min_cycle;Max_cycle;Signal;HPM_P1;HPM_P2
2022/05/15 00:01:19;;;;;;;12.93;4.05;;;11.50;99.90;;;;;;5058133;28;20397;-81
2022/05/15 00:03:45;;;;;;;17.52;5.65;;;11.50;99.90;;;;;;5095155;28;20055;-81
2022/05/15 00:06:10;;;;;;;13.60;3.95;;;11.50;99.90;;;;;;5094954;28;20073;-80
2022/05/15 00:08:38;;;;;;;19.65;4.43;;;11.40;99.90;;;;;;5095211;28;20042;-81
2022/05/15 00:11:08;;;;;;;19.63;4.85;;;11.40;99.90;;;;;;5093820;28;20079;-81
2022/05/15 00:13:33;;;;;;;11.60;4.03;;;11.40;99.90;;;;;;5095047;28;20062;-81
2022/05/15 00:15:59;;;;;;;17.58;4.75;;;11.40;99.90;;;;;;5094902;28;20055;-81
2022/05/15 00:18:25;;;;;;;14.48;4.55;;;11.30;99.90;;;;;;5095140;28;20384;-81
2022/05/15 00:20:52;;;;;;;13.98;4.07;;;11.40;99.90;;;;;;5094575;28;20030;-81
2022/05/15 00:23:19;;;;;;;15.80;4.82;;;11.40;99.90;;;;;;5094935;28;20016;-81
2022/05/15 00:25:45;;;;;;;13.75;4.03;;;11.40;99.90;;;;;;5095103;28;20444;-81
2022/05/15 00:28:13;;;;;;;12.57;5.18;;;11.30;99.90;;;;;;5094656;28;20092;-81
2022/05/15 00:30:39;;;;;;;13.15;5.45;;;11.40;99.90;;;;;;5094914;28;20032;-81
2022/05/15 00:33:06;;;;;;;18.48;7.15;;;11.30;99.90;;;;;;5094741;28;20425;-81
2022/05/15 00:35:35;;;;;;;23.00;9.70;;;11.40;99.90;;;;;;5094389;28;20031;-83
2022/05/15 00:38:00;;;;;;;22.88;8.88;;;11.40;99.90;;;;;;5094588;28;20495;-83
2022/05/15 00:40:27;;;;;;;24.60;8.90;;;11.30;99.90;;;;;;5094431;28;20024;-83
2022/05/15 00:42:52;;;;;;;19.08;7.53;;;11.20;99.90;;;;;;5093254;28;20031;-83
2022/05/15 00:45:22;;;;;;;16.30;5.88;;;11.20;99.90;;;;;;5093124;28;20024;-83
2022/05/15 00:47:48;;;;;;;16.55;5.82;;;11.10;99.90;;;;;;5093195;28;20032;-83
2022/05/15 00:50:25;;;;;;;13.35;5.28;;;11.10;99.90;;;;;;5093343;28;20055;-83
2022/05/15 00:52:54;;;;;;;18.88;5.28;;;11.00;99.90;;;;;;5092979;28;20024;-83
2022/05/15 00:55:24;;;;;;;20.85;5.60;;;11.00;99.90;;;;;;5093963;28;20040;-83
2022/05/15 00:57:54;;;;;;;17.33;5.53;;;11.00;99.90;;;;;;5094078;28;20044;-83
2022/05/15 01:00:31;;;;;;;16.92;5.30;;;11.00;99.90;;;;;;5093164;28;20074;-83
2022/05/15 01:03:11;;;;;;;12.77;4.20;;;10.90;99.90;;;;;;5094101;28;20107;-83
2022/05/15 01:05:44;;;;;;;15.20;4.93;;;10.90;99.90;;;;;;5092360;28;20498;-83
2022/05/15 01:08:11;;;;;;;15.90;4.25;;;10.80;99.90;;;;;;5092902;28;20406;-83
2022/05/15 01:10:53;;;;;;;10.93;4.28;;;10.80;99.90;;;;;;5075676;28;20050;-83
2022/05/15 01:13:22;;;;;;;15.23;4.25;;;10.80;99.90;;;;;;5093751;28;20073;-83
2022/05/15 01:15:50;;;;;;;13.13;4.53;;;10.70;99.90;;;;;;5093787;28;20540;-83
2022/05/15 01:18:23;;;;;;;20.88;5.00;;;10.70;99.90;;;;;;5094006;28;20032;-83
2022/05/15 01:20:57;;;;;;;15.98;4.47;;;10.70;99.90;;;;;;5091972;28;20026;-83
2022/05/15 01:23:23;;;;;;;26.67;6.20;;;10.50;99.90;;;;;;5092392;28;20349;-83
2022/05/15 01:25:50;;;;;;;13.35;3.95;;;10.60;99.90;;;;;;5093753;28;20084;-83
2022/05/15 01:28:22;;;;;;;19.15;4.50;;;10.50;99.90;;;;;;5093659;28;20511;-83
2022/05/15 01:30:53;;;;;;;16.73;4.63;;;10.50;99.90;;;;;;5093796;28;20033;-83
2022/05/15 01:33:19;;;;;;;21.70;4.68;;;10.50;99.90;;;;;;5093360;28;20446;-83
2022/05/15 01:35:44;;;;;;;17.50;4.18;;;10.50;99.90;;;;;;5093009;28;20112;-83
2022/05/15 01:38:10;;;;;;;16.10;4.45;;;10.50;99.90;;;;;;5093396;28;20031;-83
2022/05/15 01:40:38;;;;;;;11.23;3.70;;;10.50;99.90;;;;;;5093376;28;20020;-83
2022/05/15 01:43:28;;;;;;;16.38;4.07;;;10.40;99.90;;;;;;5097021;28;20024;-83
2022/05/15 01:45:59;;;;;;;15.73;4.03;;;10.50;99.90;;;;;;5111338;28;20080;-83
2022/05/15 01:48:26;;;;;;;12.43;4.03;;;10.40;99.90;;;;;;5113608;28;20051;-83
2022/05/15 01:51:01;;;;;;;11.43;4.07;;;10.40;99.90;;;;;;5111527;28;20491;-83
2022/05/15 01:53:27;;;;;;;19.00;4.60;;;10.40;99.90;;;;;;5113532;28;20035;-83
2022/05/15 01:55:56;;;;;;;10.88;3.85;;;10.40;99.90;;;;;;5113192;28;20436;-83
2022/05/15 01:58:22;;;;;;;10.02;3.25;;;10.40;99.90;;;;;;5093077;28;20040;-83
2022/05/15 02:00:50;;;;;;;14.00;3.60;;;10.40;99.90;;;;;;5092660;28;20027;-83
2022/05/15 02:03:16;;;;;;;13.07;3.20;;;10.30;99.90;;;;;;5092955;28;20067;-83
2022/05/15 02:05:44;;;;;;;17.30;4.15;;;10.30;99.90;;;;;;5074727;28;20487;-83
2022/05/15 02:08:09;;;;;;;13.75;4.10;;;10.30;99.90;;;;;;5074899;28;20081;-83
2022/05/15 02:10:45;;;;;;;7.20;3.35;;;10.30;99.90;;;;;;5092783;28;20419;-83
2022/05/15 02:13:11;;;;;;;10.07;3.35;;;10.30;99.90;;;;;;5092819;28;20070;-83
2022/05/15 02:15:42;;;;;;;8.50;3.53;;;10.30;99.90;;;;;;5092665;28;20028;-83
2022/05/15 02:18:08;;;;;;;15.38;4.70;;;10.20;99.90;;;;;;5092767;28;20024;-83
2022/05/15 02:20:36;;;;;;;13.88;4.22;;;10.20;99.90;;;;;;5092776;28;20525;-83
2022/05/15 02:23:01;;;;;;;14.88;4.32;;;10.20;99.90;;;;;;5092919;28;20445;-83
2022/05/15 02:25:31;;;;;;;15.10;4.07;;;10.10;99.90;;;;;;5092809;28;20023;-83
2022/05/15 02:27:57;;;;;;;17.10;4.32;;;10.10;99.90;;;;;;5092607;28;20024;-82
2022/05/15 02:30:24;;;;;;;15.35;4.65;;;10.10;99.90;;;;;;5092656;28;20046;-83
2022/05/15 02:32:50;;;;;;;14.98;4.85;;;10.00;99.90;;;;;;5074660;28;20515;-83
2022/05/15 02:35:16;;;;;;;13.57;5.03;;;10.00;99.90;;;;;;5092256;28;20021;-83
2022/05/15 02:37:44;;;;;;;11.65;4.03;;;10.00;99.90;;;;;;5074526;28;20027;-83
2022/05/15 02:40:12;;;;;;;14.48;3.70;;;10.00;99.90;;;;;;5092522;28;20111;-84
2022/05/15 02:42:38;;;;;;;18.25;4.50;;;9.90;99.90;;;;;;5092459;28;20023;-83
2022/05/15 02:45:06;;;;;;;15.63;4.57;;;9.90;99.90;;;;;;5092671;28;20085;-83
2022/05/15 02:47:32;;;;;;;17.85;4.28;;;9.80;99.90;;;;;;5092557;28;20108;-83
2022/05/15 02:52:43;;;;;;;11.73;3.53;;;9.80;99.90;;;;;;5092661;28;20093;-83
2022/05/15 02:55:09;;;;;;;15.15;3.83;;;9.70;99.90;;;;;;5092373;28;20028;-83
2022/05/15 02:57:42;;;;;;;10.50;3.25;;;9.70;99.90;;;;;;5106500;28;20059;-83
2022/05/15 03:00:10;;;;;;;12.05;4.20;;;9.70;99.90;;;;;;5112917;28;20475;-83
2022/05/15 03:02:40;;;;;;;10.95;3.60;;;9.70;99.90;;;;;;5112595;28;20032;-83
2022/05/15 03:05:07;;;;;;;12.90;3.72;;;9.70;99.90;;;;;;5094286;28;20039;-82
2022/05/15 03:07:44;;;;;;;9.90;3.40;;;9.80;99.90;;;;;;5112609;28;20083;-83
2022/05/15 03:10:13;;;;;;;11.77;4.03;;;9.70;99.90;;;;;;5112710;28;20404;-83
2022/05/15 03:12:39;;;;;;;15.38;4.07;;;9.70;99.90;;;;;;5112610;28;20016;-83
2022/05/15 03:15:07;;;;;;;11.18;3.38;;;9.60;99.90;;;;;;5116169;28;20027;-83
2022/05/15 03:17:42;;;;;;;11.45;4.07;;;9.60;99.90;;;;;;5116430;28;20085;-83
2022/05/15 03:20:09;;;;;;;15.95;4.85;;;9.60;99.90;;;;;;5116105;28;20529;-83
2022/05/15 03:22:35;;;;;;;19.23;4.95;;;9.50;99.90;;;;;;5097512;28;20063;-83
2022/05/15 03:25:03;;;;;;;16.05;5.10;;;9.50;99.90;;;;;;5116235;28;20092;-83
2022/05/15 03:27:29;;;;;;;17.88;4.28;;;9.50;99.90;;;;;;5116270;28;20020;-83
2022/05/15 03:30:04;;;;;;;12.23;3.90;;;9.40;99.90;;;;;;5097625;28;20383;-83
2022/05/15 03:32:30;;;;;;;11.88;4.28;;;9.40;99.90;;;;;;5116227;28;20020;-83
2022/05/15 03:35:07;;;;;;;12.35;3.35;;;9.40;99.90;;;;;;5115306;28;20040;-83
2022/05/15 03:37:33;;;;;;;14.60;4.28;;;9.40;99.90;;;;;;5116169;28;20495;-83
2022/05/15 03:40:01;;;;;;;8.75;3.92;;;9.40;99.90;;;;;;5115843;28;20047;-83
2022/05/15 03:42:27;;;;;;;9.57;3.50;;;9.40;99.90;;;;;;5116085;28;20047;-83
2022/05/15 03:44:53;;;;;;;10.55;3.88;;;9.40;99.90;;;;;;5115881;28;20024;-83
2022/05/15 03:47:19;;;;;;;15.00;4.28;;;9.40;99.90;;;;;;5115795;28;20088;-83
2022/05/15 03:49:51;;;;;;;11.52;3.70;;;9.40;99.90;;;;;;5115923;28;20035;-83
2022/05/15 03:52:17;;;;;;;9.82;3.50;;;9.50;99.90;;;;;;5097284;28;20125;-83
2022/05/15 03:54:43;;;;;;;8.48;3.45;;;9.40;99.90;;;;;;5115645;28;20161;-83
2022/05/15 03:57:11;;;;;;;10.63;3.95;;;9.50;99.90;;;;;;5115684;28;20047;-83
2022/05/15 03:59:39;;;;;;;14.98;4.97;;;9.50;99.90;;;;;;5115681;28;20107;-83
2022/05/15 04:02:07;;;;;;;10.20;3.70;;;9.50;99.90;;;;;;5097363;28;20062;-82
2022/05/15 04:04:33;;;;;;;17.35;4.70;;;9.50;99.90;;;;;;5097442;28;20383;-83
2022/05/15 04:07:02;;;;;;;11.57;3.90;;;9.50;99.90;;;;;;5115220;28;20023;-82
2022/05/15 04:09:30;;;;;;;17.00;3.80;;;9.60;99.90;;;;;;5115701;28;20394;-83
2022/05/15 04:11:56;;;;;;;16.30;4.40;;;9.60;99.90;;;;;;5115623;28;20966;-83
2022/05/15 04:14:21;;;;;;;13.60;3.63;;;9.60;99.90;;;;;;5115207;28;20114;-83
2022/05/15 04:16:51;;;;;;;13.32;3.92;;;9.60;99.90;;;;;;5097155;28;20382;-83
2022/05/15 04:19:17;;;;;;;9.73;3.78;;;9.60;99.90;;;;;;5115122;28;20031;-83
2022/05/15 04:21:43;;;;;;;11.45;3.92;;;9.60;99.90;;;;;;5114889;28;20019;-83
2022/05/15 04:24:11;;;;;;;14.60;4.15;;;9.70;99.90;;;;;;5096673;28;20043;-84
2022/05/15 04:26:38;;;;;;;9.25;3.85;;;9.70;99.90;;;;;;5115082;28;20031;-83
2022/05/15 04:29:05;;;;;;;9.52;3.63;;;9.70;99.90;;;;;;5115089;28;20429;-83
2022/05/15 04:31:34;;;;;;;10.60;3.70;;;9.70;99.90;;;;;;5115043;28;20107;-83
2022/05/15 04:34:00;;;;;;;7.50;2.83;;;9.80;99.90;;;;;;5114564;28;20511;-83
2022/05/15 04:36:26;;;;;;;8.13;3.13;;;9.80;99.90;;;;;;5114351;28;20045;-83
2022/05/15 04:38:52;;;;;;;9.88;3.10;;;9.90;99.90;;;;;;5096719;28;20023;-83
2022/05/15 04:41:18;;;;;;;15.15;4.15;;;9.90;99.90;;;;;;5095786;28;20015;-83
2022/05/15 04:43:44;;;;;;;12.55;3.70;;;10.00;99.90;;;;;;5114743;28;20379;-83
2022/05/15 04:46:17;;;;;;;7.25;3.17;;;10.00;99.90;;;;;;5096182;28;20114;-83
2022/05/15 04:48:43;;;;;;;5.53;2.88;;;10.00;99.90;;;;;;5114912;28;20114;-83
2022/05/15 04:51:10;;;;;;;5.80;2.75;;;10.10;99.90;;;;;;5114437;28;20047;-83
2022/05/15 04:53:36;;;;;;;6.78;3.30;;;10.20;99.90;;;;;;5114501;28;20019;-83
2022/05/15 04:56:02;;;;;;;5.38;2.95;;;10.30;99.90;;;;;;5114483;28;20088;-83
2022/05/15 04:58:28;;;;;;;7.65;2.95;;;10.40;99.90;;;;;;5114501;28;20471;-83
2022/05/15 05:00:54;;;;;;;10.90;3.40;;;10.40;99.90;;;;;;5114478;28;20016;-83
2022/05/15 05:03:20;;;;;;;3.60;1.85;;;10.50;99.90;;;;;;5096001;28;20024;-83
2022/05/15 05:05:48;;;;;;;13.75;4.25;;;10.60;99.90;;;;;;5114061;28;20447;-83
2022/05/15 05:08:13;;;;;;;15.48;3.92;;;10.70;99.90;;;;;;5114298;28;20028;-83
2022/05/15 05:10:48;;;;;;;5.90;2.80;;;10.80;99.90;;;;;;5114238;28;20502;-83
2022/05/15 05:13:13;;;;;;;12.18;3.70;;;10.80;99.90;;;;;;5114156;28;20510;-83
2022/05/15 05:15:39;;;;;;;10.60;3.28;;;10.90;99.90;;;;;;5114012;28;20032;-83
2022/05/15 05:18:05;;;;;;;11.30;2.95;;;11.00;99.90;;;;;;5114415;28;20444;-83
2022/05/15 05:20:31;;;;;;;6.63;3.17;;;11.10;99.90;;;;;;5113781;28;20024;-83
2022/05/15 05:22:56;;;;;;;11.07;3.67;;;11.10;99.90;;;;;;5113877;28;20491;-83
2022/05/15 05:25:23;;;;;;;10.38;3.20;;;11.30;99.90;;;;;;5112761;28;20031;-83
2022/05/15 05:27:49;;;;;;;5.75;2.45;;;11.40;99.90;;;;;;5114149;28;20072;-83
2022/05/15 05:30:19;;;;;;;8.70;2.58;;;11.40;99.90;;;;;;5113838;28;20031;-83
2022/05/15 05:32:45;;;;;;;13.48;3.58;;;11.50;99.90;;;;;;5095780;28;20034;-83
2022/05/15 05:35:15;;;;;;;14.15;4.15;;;11.60;99.90;;;;;;5113300;28;20023;-83
2022/05/15 05:37:40;;;;;;;8.40;3.05;;;11.70;99.90;;;;;;5113140;28;20103;-83
2022/05/15 05:40:08;;;;;;;19.17;3.80;;;11.80;99.90;;;;;;5113836;28;20102;-83
2022/05/15 05:42:34;;;;;;;11.90;3.40;;;11.90;99.90;;;;;;5113718;28;20046;-84
2022/05/15 05:45:14;;;;;;;16.55;4.00;;;12.00;99.90;;;;;;5113447;28;20024;-83
2022/05/15 05:47:39;;;;;;;15.27;4.65;;;12.10;99.90;;;;;;5113734;28;20027;-83
2022/05/15 05:50:10;;;;;;;12.10;4.45;;;12.20;99.90;;;;;;5113376;28;20036;-83
2022/05/15 05:52:39;;;;;;;13.73;3.65;;;12.30;99.90;;;;;;5095269;28;20028;-83
2022/05/15 05:55:07;;;;;;;14.02;3.33;;;12.40;99.90;;;;;;5113392;28;20023;-83
2022/05/15 05:57:33;;;;;;;13.57;4.03;;;12.50;99.90;;;;;;5113310;28;20093;-83
2022/05/15 05:59:59;;;;;;;18.92;4.28;;;12.60;99.90;;;;;;5113360;28;20531;-84
2022/05/15 06:02:26;;;;;;;14.73;3.65;;;12.60;99.90;;;;;;5113530;28;20098;-83
2022/05/15 06:04:52;;;;;;;13.43;3.97;;;12.70;99.90;;;;;;5112937;28;20027;-83
2022/05/15 06:07:27;;;;;;;16.92;4.40;;;12.80;99.90;;;;;;5113048;28;20028;-83
2022/05/15 06:09:54;;;;;;;9.40;3.67;;;12.80;99.90;;;;;;5113513;28;20091;-83
2022/05/15 06:12:24;;;;;;;8.77;3.10;;;12.90;99.90;;;;;;5094944;28;20084;-83
2022/05/15 06:14:51;;;;;;;20.58;4.63;;;13.00;99.90;;;;;;5113327;28;20028;-83
2022/05/15 06:17:23;;;;;;;22.95;5.68;;;13.00;99.90;;;;;;5094952;28;20032;-83
2022/05/15 06:19:49;;;;;;;16.83;4.50;;;13.10;99.90;;;;;;5112864;28;20031;-83
2022/05/15 06:22:16;;;;;;;14.15;4.03;;;13.10;99.90;;;;;;5094912;28;20028;-83
2022/05/15 06:24:42;;;;;;;21.95;5.07;;;13.10;99.90;;;;;;5113215;28;20050;-83
2022/05/15 06:27:09;;;;;;;20.00;5.35;;;13.20;99.90;;;;;;5113182;28;20020;-83
2022/05/15 06:29:37;;;;;;;15.00;4.30;;;13.30;99.90;;;;;;5113142;28;20028;-83
2022/05/15 06:32:08;;;;;;;20.10;5.13;;;13.30;99.90;;;;;;5094752;28;20487;-83
2022/05/15 06:34:34;;;;;;;16.02;4.75;;;13.30;99.90;;;;;;5112756;28;20023;-83
2022/05/15 06:37:04;;;;;;;12.32;4.38;;;13.30;99.90;;;;;;5112841;28;20027;-83
2022/05/15 06:39:31;;;;;;;24.92;5.10;;;13.40;99.90;;;;;;5113087;28;20024;-83
2022/05/15 06:41:59;;;;;;;16.67;5.03;;;13.40;99.90;;;;;;5112958;28;20058;-83
2022/05/15 06:44:25;;;;;;;16.88;4.45;;;13.40;99.90;;;;;;5112823;28;20081;-83
2022/05/15 06:46:56;;;;;;;16.17;4.32;;;13.50;99.90;;;;;;5094583;28;20024;-83
2022/05/15 06:49:22;;;;;;;13.35;4.40;;;13.50;99.90;;;;;;5115313;28;20102;-84
2022/05/15 06:51:48;;;;;;;19.40;5.00;;;13.60;99.90;;;;;;5117239;28;20076;-83
2022/05/15 06:54:13;;;;;;;19.42;5.20;;;13.70;99.90;;;;;;5116734;28;20024;-83
2022/05/15 06:59:25;;;;;;;19.27;4.40;;;13.70;99.90;;;;;;5116890;28;20042;-84
2022/05/15 07:01:53;;;;;;;22.85;4.63;;;13.80;99.90;;;;;;5098685;28;20024;-84
2022/05/15 07:04:18;;;;;;;17.08;4.22;;;13.80;99.90;;;;;;5116244;28;20059;-83
2022/05/15 07:06:45;;;;;;;24.77;4.93;;;13.90;99.90;;;;;;5116824;28;20048;-83
2022/05/15 07:09:11;;;;;;;12.02;3.95;;;14.00;99.90;;;;;;5116631;28;20080;-83
2022/05/15 07:11:36;;;;;;;22.25;4.53;;;14.00;99.90;;;;;;5116537;28;20027;-84
2022/05/15 07:14:03;;;;;;;21.60;4.93;;;14.10;99.90;;;;;;5116441;28;20020;-83
2022/05/15 07:16:30;;;;;;;10.63;3.67;;;14.10;99.90;;;;;;5116641;28;20411;-83
2022/05/15 07:18:55;;;;;;;19.23;5.13;;;14.10;99.90;;;;;;5097891;28;20375;-83
2022/05/15 07:21:25;;;;;;;21.42;5.20;;;14.20;99.90;;;;;;5098114;28;20016;-83
2022/05/15 07:23:50;;;;;;;17.40;4.43;;;14.30;99.90;;;;;;5116323;28;20429;-83
2022/05/15 07:26:16;;;;;;;21.85;4.80;;;14.40;99.90;;;;;;5116410;28;20034;-83
2022/05/15 07:28:41;;;;;;;19.52;4.20;;;14.40;99.90;;;;;;5115949;28;20557;-83
2022/05/15 07:31:07;;;;;;;14.80;3.85;;;14.50;99.90;;;;;;5115955;28;20476;-83
2022/05/15 07:33:32;;;;;;;20.05;4.35;;;14.60;99.90;;;;;;5116221;28;20488;-84
2022/05/15 07:36:00;;;;;;;19.23;3.42;;;14.70;99.90;;;;;;5115886;28;20027;-84
2022/05/15 07:38:26;;;;;;;20.90;4.05;;;14.80;99.90;;;;;;5115886;28;20542;-83
2022/05/15 07:40:55;;;;;;;22.17;4.95;;;14.80;99.90;;;;;;5115979;28;20043;-84
2022/05/15 07:43:21;;;;;;;15.20;4.07;;;14.90;99.90;;;;;;5115925;28;20077;-84
2022/05/15 07:45:46;;;;;;;19.67;4.18;;;15.00;99.90;;;;;;5116028;28;20024;-84
2022/05/15 07:48:12;;;;;;;15.52;4.00;;;15.00;99.90;;;;;;5115806;28;20361;-84
2022/05/15 07:50:40;;;;;;;17.27;3.80;;;15.10;99.90;;;;;;5115546;28;20024;-84
2022/05/15 07:53:06;;;;;;;27.67;4.68;;;15.20;99.90;;;;;;5115752;28;20032;-83
2022/05/15 07:55:34;;;;;;;13.85;3.17;;;15.30;99.90;;;;;;5115646;28;20387;-83
2022/05/15 07:58:00;;;;;;;19.02;4.45;;;15.30;99.90;;;;;;5115636;28;20048;-85
2022/05/15 08:00:29;;;;;;;18.98;4.47;;;15.40;99.90;;;;;;5115008;28;20478;-83
2022/05/15 08:03:07;;;;;;;15.55;3.80;;;15.50;99.90;;;;;;5115665;28;20042;-83
2022/05/15 08:08:20;;;;;;;23.38;5.85;;;15.60;99.90;;;;;;5115789;28;20077;-84
2022/05/15 08:10:48;;;;;;;15.43;3.70;;;15.60;99.90;;;;;;5115688;28;20070;-85
2022/05/15 08:13:15;;;;;;;16.25;4.32;;;15.60;99.90;;;;;;5115260;28;20016;-84
2022/05/15 08:15:43;;;;;;;16.17;3.92;;;15.70;99.90;;;;;;5115162;28;20076;-84
2022/05/15 08:24:02;;;;;;;15.65;4.45;;;15.90;99.90;;;;;;5115471;28;20023;-84
2022/05/15 08:26:29;;;;;;;25.60;6.13;;;16.00;99.90;;;;;;5088198;28;20035;-84
2022/05/15 08:28:55;;;;;;;20.38;4.35;;;16.00;99.90;;;;;;5115122;28;20077;-84
2022/05/15 08:31:24;;;;;;;26.10;5.88;;;16.10;99.90;;;;;;5114964;28;20087;-84
2022/05/15 08:33:50;;;;;;;20.02;4.75;;;16.20;99.90;;;;;;5114961;28;20102;-85
2022/05/15 08:36:22;;;;;;;19.70;4.28;;;16.30;99.90;;;;;;5114342;28;20036;-84
2022/05/15 08:38:48;;;;;;;20.08;4.63;;;16.30;99.90;;;;;;5115022;28;20030;-84
2022/05/15 08:41:21;;;;;;;28.15;5.63;;;16.40;99.90;;;;;;5114654;28;20024;-85
2022/05/15 08:44:09;;;;;;;16.27;3.85;;;16.50;99.90;;;;;;5114572;28;20020;-84
2022/05/15 08:47:22;;;;;;;22.45;5.22;;;16.60;99.90;;;;;;5114735;28;20027;-85
2022/05/15 08:49:57;;;;;;;18.23;3.72;;;16.60;99.90;;;;;;5096165;28;20494;-84
2022/05/15 08:52:37;;;;;;;23.47;5.00;;;16.70;99.90;;;;;;5114686;28;20379;-85
2022/05/15 08:55:19;;;;;;;27.27;5.40;;;16.80;99.90;;;;;;5114631;28;20529;-83
2022/05/15 08:58:00;;;;;;;21.08;4.50;;;16.90;99.90;;;;;;5114679;28;20043;-85
2022/05/15 09:00:46;;;;;;;19.67;4.65;;;16.90;99.90;;;;;;5114482;28;20036;-85
2022/05/15 09:03:23;;;;;;;22.02;4.90;;;16.90;99.90;;;;;;5114385;28;20038;-85
2022/05/15 09:05:54;;;;;;;25.42;4.78;;;16.90;99.90;;;;;;5114031;28;20027;-85
2022/05/15 09:08:42;;;;;;;19.73;4.80;;;17.00;99.90;;;;;;5114280;28;20034;-84
2022/05/15 09:11:09;;;;;;;27.70;6.20;;;17.10;99.90;;;;;;5113444;28;20028;-84
2022/05/15 09:13:57;;;;;;;23.25;5.43;;;17.20;99.90;;;;;;5114239;28;20118;-85
2022/05/15 09:16:26;;;;;;;20.65;4.93;;;17.20;99.90;;;;;;5114209;28;20076;-84
2022/05/15 09:19:03;;;;;;;23.15;4.40;;;17.30;99.90;;;;;;5114084;28;20059;-85
2022/05/15 09:21:28;;;;;;;25.05;5.50;;;17.30;99.90;;;;;;5113966;28;20425;-85
2022/05/15 09:23:59;;;;;;;33.55;6.47;;;17.40;99.90;;;;;;5114085;28;20012;-84
2022/05/15 09:26:41;;;;;;;22.92;4.72;;;17.50;99.90;;;;;;5113895;28;20052;-85
2022/05/15 09:29:28;;;;;;;19.77;4.43;;;17.50;99.90;;;;;;5114139;28;20047;-84
2022/05/15 09:31:54;;;;;;;19.65;5.65;;;17.60;99.90;;;;;;5113987;28;20118;-84
2022/05/15 09:34:29;;;;;;;23.85;5.18;;;17.70;99.90;;;;;;5112728;28;20065;-85
2022/05/15 09:39:47;;;;;;;26.52;5.05;;;17.60;99.90;;;;;;5113822;28;20023;-85
2022/05/15 09:45:19;;;;;;;18.60;4.70;;;17.80;99.90;;;;;;5113569;28;20038;-84
2022/05/15 09:47:52;;;;;;;24.27;5.10;;;17.90;99.90;;;;;;5095564;28;20023;-84
2022/05/15 09:50:40;;;;;;;21.50;5.03;;;18.00;99.90;;;;;;5113256;28;20027;-84
2022/05/15 09:53:23;;;;;;;22.98;4.60;;;18.10;99.90;;;;;;5113476;28;20028;-85
2022/05/15 09:56:13;;;;;;;16.23;5.00;;;18.20;99.90;;;;;;5113598;28;20451;-85
2022/05/15 09:59:04;;;;;;;33.85;6.30;;;18.20;99.90;;;;;;5113313;28;20031;-85
2022/05/15 10:01:36;;;;;;;23.80;5.00;;;18.30;99.90;;;;;;5113270;28;20422;-85
2022/05/15 10:04:32;;;;;;;24.58;5.35;;;18.30;99.90;;;;;;5112827;28;20016;-84
2022/05/15 10:07:03;;;;;;;27.73;5.40;;;18.30;99.90;;;;;;5110253;28;20038;-85
2022/05/15 10:09:40;;;;;;;28.02;4.70;;;18.30;99.90;;;;;;5113270;28;20012;-85
2022/05/15 10:12:08;;;;;;;32.15;5.50;;;18.30;99.90;;;;;;5094941;28;20027;-85
2022/05/15 10:14:38;;;;;;;27.33;5.55;;;18.30;99.90;;;;;;5112979;28;20037;-85
2022/05/15 10:17:05;;;;;;;14.85;3.90;;;18.40;99.90;;;;;;5112991;28;20020;-85
2022/05/15 10:19:46;;;;;;;24.17;4.72;;;18.40;99.90;;;;;;5094486;28;20028;-85
2022/05/15 10:22:16;;;;;;;28.25;5.15;;;18.40;99.90;;;;;;5112876;28;20023;-85
2022/05/15 10:24:47;;;;;;;25.38;6.03;;;18.50;99.90;;;;;;5113085;28;20036;-85
2022/05/15 10:27:32;;;;;;;20.45;4.75;;;18.50;99.90;;;;;;5113108;28;20104;-86
2022/05/15 10:30:14;;;;;;;29.87;4.87;;;18.60;99.90;;;;;;5112931;28;20027;-85
2022/05/15 10:33:08;;;;;;;21.30;4.65;;;18.60;99.90;;;;;;5094843;28;20046;-86
2022/05/15 10:35:45;;;;;;;24.23;3.92;;;18.60;99.90;;;;;;5103141;28;20103;-85
2022/05/15 10:39:03;;;;;;;25.75;4.88;;;18.60;99.90;;;;;;5112906;28;20020;-85
2022/05/15 10:41:40;;;;;;;16.08;4.55;;;18.70;99.90;;;;;;5112783;28;20475;-85
2022/05/15 10:44:29;;;;;;;25.88;5.35;;;18.70;99.90;;;;;;5112810;28;20055;-85
2022/05/15 10:47:00;;;;;;;23.55;4.60;;;18.80;99.90;;;;;;5112972;28;20069;-85
2022/05/15 10:49:55;;;;;;;19.73;4.28;;;18.80;99.90;;;;;;5094326;28;20077;-86
2022/05/15 10:52:46;;;;;;;30.52;6.07;;;18.90;99.90;;;;;;5112884;28;20427;-86
2022/05/15 10:58:29;;;;;;;22.10;5.28;;;18.90;99.90;;;;;;5113149;28;20097;-86
2022/05/15 11:01:32;;;;;;;21.30;5.63;;;19.10;99.90;;;;;;5112874;28;20043;-86
2022/05/15 11:04:26;;;;;;;27.80;5.18;;;19.10;99.90;;;;;;5112333;28;20030;-85
2022/05/15 11:07:07;;;;;;;21.33;4.75;;;19.10;99.90;;;;;;5112652;28;20361;-86
2022/05/15 11:10:02;;;;;;;24.55;4.75;;;19.10;99.90;;;;;;5112790;28;20023;-85
2022/05/15 11:13:10;;;;;;;20.17;4.90;;;19.10;99.90;;;;;;5106373;28;20081;-86
2022/05/15 11:16:09;;;;;;;25.63;6.03;;;19.10;99.90;;;;;;5112542;28;20031;-86
2022/05/15 11:18:55;;;;;;;16.60;4.18;;;19.20;99.90;;;;;;5112330;28;20019;-85
2022/05/15 11:22:02;;;;;;;23.45;4.85;;;19.20;99.90;;;;;;5112766;28;20099;-85
2022/05/15 11:24:31;;;;;;;19.10;4.88;;;19.20;99.90;;;;;;5112041;28;20137;-85
2022/05/15 11:27:19;;;;;;;21.30;4.68;;;19.20;99.90;;;;;;5112351;28;20027;-85
2022/05/15 11:29:49;;;;;;;18.25;4.25;;;19.30;99.90;;;;;;5112530;28;20468;-86
2022/05/15 11:32:47;;;;;;;29.63;6.13;;;19.30;99.90;;;;;;5103404;28;20023;-86
2022/05/15 11:35:19;;;;;;;21.95;5.57;;;19.40;99.90;;;;;;5094002;28;20032;-86
2022/05/15 11:37:58;;;;;;;25.55;5.70;;;19.50;99.90;;;;;;5095823;28;20020;-86
2022/05/15 11:40:40;;;;;;;15.20;3.88;;;19.50;99.90;;;;;;5095572;28;20027;-85
2022/05/15 11:46:57;;;;;;;14.93;4.25;;;19.60;99.90;;;;;;5095857;28;20076;-86
2022/05/15 11:49:37;;;;;;;15.98;4.28;;;19.70;99.90;;;;;;5095135;28;20455;-86
2022/05/15 11:52:12;;;;;;;15.93;3.88;;;19.70;99.90;;;;;;5095433;28;20027;-86
2022/05/15 11:54:41;;;;;;;13.50;4.72;;;19.70;99.90;;;;;;5095138;28;20024;-86
2022/05/15 11:57:11;;;;;;;18.35;4.10;;;19.80;99.90;;;;;;5095323;28;20052;-87
2022/05/15 11:59:55;;;;;;;12.68;3.42;;;19.90;99.90;;;;;;5077096;28;20115;-86
2022/05/15 12:02:21;;;;;;;18.88;4.25;;;19.90;99.90;;;;;;5095312;28;20472;-86
2022/05/15 12:04:48;;;;;;;20.20;4.57;;;20.00;99.90;;;;;;5094952;28;20059;-86
2022/05/15 12:07:14;;;;;;;20.42;4.60;;;20.00;99.90;;;;;;5095264;28;20077;-86
2022/05/15 12:09:52;;;;;;;20.73;4.28;;;20.00;99.90;;;;;;5095104;28;20040;-86
2022/05/15 12:12:20;;;;;;;18.42;4.43;;;20.00;99.90;;;;;;5077050;28;20055;-86
2022/05/15 12:15:09;;;;;;;20.55;4.72;;;20.20;99.90;;;;;;5094880;28;20020;-86
2022/05/15 12:17:39;;;;;;;21.20;4.53;;;20.30;99.90;;;;;;5095254;28;20016;-86
2022/05/15 12:20:28;;;;;;;16.88;4.13;;;20.40;99.90;;;;;;5094643;28;20024;-86
2022/05/15 12:23:15;;;;;;;21.50;4.68;;;20.50;99.90;;;;;;5094935;28;20475;-86
2022/05/15 12:26:15;;;;;;;17.15;4.18;;;20.60;98.50;;;;;;5096871;28;20365;-86
2022/05/15 12:29:19;;;;;;;17.80;4.70;;;20.60;96.60;;;;;;5114623;28;20464;-86
2022/05/15 12:31:46;;;;;;;23.20;5.10;;;20.60;98.60;;;;;;5114202;28;20114;-86
2022/05/15 12:34:45;;;;;;;15.77;4.53;;;20.60;97.10;;;;;;5114304;28;20115;-86
2022/05/15 12:37:16;;;;;;;18.73;4.90;;;20.70;97.40;;;;;;5113854;28;20023;-86
2022/05/15 12:39:59;;;;;;;20.55;5.85;;;20.70;95.50;;;;;;5114780;28;20016;-86
2022/05/15 12:42:40;;;;;;;17.23;4.82;;;20.70;96.30;;;;;;5113591;28;20031;-86
2022/05/15 12:45:20;;;;;;;15.02;3.50;;;20.70;95.60;;;;;;5114856;28;20028;-86
2022/05/15 12:48:14;;;;;;;19.00;4.65;;;20.70;95.80;;;;;;5114833;28;20019;-86
2022/05/15 12:51:01;;;;;;;29.08;5.60;;;20.70;93.90;;;;;;5113076;28;20027;-86
2022/05/15 12:53:31;;;;;;;15.07;4.18;;;20.60;93.20;;;;;;5114842;28;20028;-87
2022/05/15 12:56:22;;;;;;;21.00;4.38;;;20.80;92.80;;;;;;5114212;28;20027;-86
2022/05/15 12:58:52;;;;;;;12.38;3.30;;;20.70;93.10;;;;;;5094397;28;20055;-86
2022/05/15 13:01:32;;;;;;;16.77;4.45;;;20.70;92.70;;;;;;5093821;28;20450;-86
2022/05/15 13:04:02;;;;;;;20.50;3.95;;;20.70;95.90;;;;;;5093535;28;20558;-86
2022/05/15 13:06:41;;;;;;;16.27;4.25;;;20.80;94.10;;;;;;5093962;28;20024;-86
2022/05/15 13:09:10;;;;;;;23.02;4.68;;;20.90;92.40;;;;;;5094065;28;20016;-85
2022/05/15 13:11:50;;;;;;;20.70;4.97;;;20.90;90.20;;;;;;5075844;28;20024;-86
2022/05/15 13:14:44;;;;;;;17.30;3.50;;;20.90;89.40;;;;;;5085829;28;20034;-85
2022/05/15 13:17:12;;;;;;;26.35;4.55;;;21.00;90.10;;;;;;5093905;28;20464;-86
2022/05/15 13:19:47;;;;;;;18.60;4.10;;;21.00;87.40;;;;;;5093370;28;20058;-87
2022/05/15 13:22:17;;;;;;;18.75;4.68;;;21.00;85.30;;;;;;5093710;28;20028;-85
2022/05/15 13:25:24;;;;;;;24.33;4.68;;;21.00;84.20;;;;;;5093830;28;20039;-85
2022/05/15 13:27:51;;;;;;;23.45;4.20;;;21.00;86.20;;;;;;5093666;28;20024;-86
2022/05/15 13:30:35;;;;;;;17.52;3.90;;;21.00;85.40;;;;;;5075182;28;20039;-86